• Join FlightAware (Why Join?)
  • Login
  • US Flag 
01:06AM EDT


 

Airport Tracker/Info


-or-


 

Live Flight TrackerFlight Track Log ✈ TRS398 ✈ 26-May-2013 ✈ KMCO - KMKE

Flight Track Log - Related Links

Times and Time Zones

All times are in EDT time to prevent confusion due to time zone crossing. See the TRS398 flight status page for this flight to view local times or setup timezone preferences in your user account.

Time Position Orientation Groundspeed Altitude Reporting Facility
EDT Latitude Longitude Course Direction KTS MPH feet Rate Location/Type
02:37PM 28.4000 -81.3000 213° Southwest 184 212 700  Level Orlando TRACON
02:38PM 28.3333 -81.3500 213° Southwest 274 315 2,800 2,280 Climbing Orlando TRACON
02:39PM 28.3333 -81.4333 270° West 278 320 6,000 2,280 Climbing Orlando TRACON
02:41PM 28.5011 -81.4919 343° North 306 352 10,500 1,680 Climbing Jacksonville Center
02:42PM 28.6017 -81.5164 348° North 327 376 11,600 1,680 Climbing Jacksonville Center
02:43PM 28.7064 -81.5411 348° North 360 414 13,900 2,160 Climbing Jacksonville Center
02:44PM 28.8150 -81.5656 349° North 383 441 16,000 2,040 Climbing Jacksonville Center
02:45PM 28.9239 -81.5925 348° North 394 453 18,000 1,800 Climbing Jacksonville Center
02:46PM 29.0369 -81.6197 348° North 400 460 19,600 1,620 Climbing Jacksonville Center
02:47PM 29.1497 -81.6419 350° North 405 466 21,300 1,500 Climbing Jacksonville Center
02:48PM 29.2669 -81.6739 347° North 416 479 22,600 1,320 Climbing Jacksonville Center
02:49PM 29.3883 -81.7008 349° North 427 491 24,000 1,380 Climbing Jacksonville Center
02:50PM 29.5097 -81.7281 349° North 432 497 25,400 1,200 Climbing Jacksonville Center
02:51PM 29.6308 -81.7578 348° North 437 503 26,500 1,200 Climbing Jacksonville Center
02:52PM 29.7544 -81.7850 349° North 442 509 27,800 1,200 Climbing Jacksonville Center
02:53PM 29.8778 -81.8147 348° North 447 514 29,000 600 Climbing Jacksonville Center
02:54PM 30.0011 -81.8419 349° North 447 514 29,000  Level Jacksonville Center
02:55PM 30.1119 -81.8672 349° North 442 509 29,000 120 Level Jacksonville Center
02:56PM 30.2333 -81.8875 352° North 448 516 29,300 780 Climbing Jacksonville Center
02:57PM 30.3564 -81.8669 North 440 506 30,600 840 Climbing Jacksonville Center
02:58PM 30.4814 -81.8511 North 440 506 31,000 180 Climbing Jacksonville Center
02:59PM 30.6067 -81.8378 North 446 513 31,000  Level Jacksonville Center
03:00PM 30.7317 -81.8194 North 446 513 31,000  Level Jacksonville Center
03:01PM 30.8550 -81.8231 359° North 441 507 31,000  Level Jacksonville Center
03:02PM 30.9661 -81.8775 337° Northwest 430 495 31,000 120 Level Jacksonville Center
03:03PM 31.0753 -81.9417 333° Northwest 424 488 31,300 600 Climbing Jacksonville Center
03:04PM 31.1822 -82.0061 333° Northwest 434 499 32,200 840 Climbing Jacksonville Center
03:05PM 31.2869 -82.0708 332° Northwest 434 499 33,000 360 Climbing Jacksonville Center
03:06PM 31.3939 -82.1308 334° Northwest 429 494 33,000  Level Jacksonville Center
03:07PM 31.5069 -82.1981 333° Northwest 429 494 33,000  Level Jacksonville Center
03:09PM 31.7075 -82.3131 334° Northwest 440 506 33,000  Level Atlanta Center
03:10PM 31.8106 -82.3747 333° Northwest 426 490 33,000  Level Atlanta Center
03:11PM 31.9136 -82.4411 331° Northwest 421 484 33,000  Level Atlanta Center
03:12PM 32.0125 -82.5006 333° Northwest 409 471 33,000  Level Atlanta Center
03:13PM 32.1197 -82.5625 334° Northwest 409 471 33,000 240 Level Atlanta Center
03:14PM 32.2228 -82.6247 333° Northwest 414 476 33,500 480 Climbing Atlanta Center
03:15PM 32.3256 -82.6869 333° Northwest 414 476 34,000 240 Climbing Atlanta Center
03:16PM 32.4286 -82.7494 333° Northwest 414 476 34,000  Level Atlanta Center
03:17PM 32.5400 -82.8167 333° Northwest 414 476 34,000  Level Atlanta Center
03:18PM 32.6450 -82.8794 333° Northwest 408 470 34,000  Level Atlanta Center
03:19PM 32.7497 -82.9347 336° Northwest 413 475 34,000  Level Atlanta Center
03:20PM 32.8547 -82.9953 334° Northwest 419 482 34,000  Level Atlanta Center
03:21PM 32.9617 -83.0558 335° Northwest 419 482 34,000  Level Atlanta Center
03:22PM 33.0686 -83.1117 336° Northwest 419 482 34,000  Level Atlanta Center
03:23PM 33.1753 -83.1703 335° Northwest 419 482 34,000  Level Atlanta Center
03:24PM 33.2781 -83.2289 335° Northwest 419 482 34,000  Level Atlanta Center
03:25PM 33.3850 -83.2900 334° Northwest 419 482 34,000  Level Atlanta Center
03:26PM 33.4917 -83.3464 336° Northwest 419 482 34,000  Level Atlanta Center
03:27PM 33.5986 -83.4078 334° Northwest 419 482 34,000  Level Atlanta Center
03:28PM 33.7053 -83.4669 335° Northwest 419 482 34,000  Level Atlanta Center
03:29PM 33.8119 -83.5286 334° Northwest 419 482 34,000  Level Atlanta Center
03:30PM 33.9186 -83.5881 335° Northwest 419 482 34,000  Level Atlanta Center
03:31PM 34.0253 -83.6478 335° Northwest 419 482 34,000  Level Atlanta Center
03:32PM 34.1339 -83.7125 334° Northwest 424 488 34,000  Level Atlanta Center
03:33PM 34.2303 -83.7675 335° Northwest 424 488 34,000  Level Atlanta Center
03:34PM 34.3408 -83.8300 335° Northwest 429 494 34,000  Level Atlanta Center
03:35PM 34.4517 -83.8953 334° Northwest 434 499 34,000  Level Atlanta Center
03:36PM 34.5622 -83.9581 335° Northwest 434 499 34,000  Level Atlanta Center
03:37PM 34.6814 -84.0311 333° Northwest 434 499 34,000  Level Atlanta Center
03:38PM 34.7919 -84.0969 334° Northwest 434 499 34,000  Level Atlanta Center
03:39PM 34.9003 -84.1578 335° Northwest 434 499 34,000  Level Atlanta Center
03:40PM 35.0067 -84.2214 334° Northwest 428 493 34,000  Level Atlanta Center
03:41PM 35.1150 -84.2850 334° Northwest 428 493 34,000  Level Atlanta Center
03:42PM 35.2214 -84.3464 335° Northwest 428 493 34,000  Level Atlanta Center
03:43PM 35.3297 -84.4106 334° Northwest 428 493 34,000  Level Atlanta Center
03:44PM 35.4358 -84.4719 335° Northwest 428 493 34,000  Level Atlanta Center
03:45PM 35.5400 -84.5339 334° Northwest 422 486 34,000  Level Atlanta Center
03:46PM 35.6439 -84.5958 334° Northwest 422 486 34,000  Level Atlanta Center
03:47PM 35.7500 -84.6606 334° Northwest 417 480 34,000  Level Atlanta Center
03:48PM 35.8542 -84.7178 336° Northwest 417 480 34,000  Level Atlanta Center
03:49PM 35.9539 -84.7775 334° Northwest 425 489 34,000  Level Atlanta Center
03:51PM 36.1200 -84.8781 334° Northwest 419 482 34,000  Level Indianapolis Center
03:52PM 36.2283 -84.9269 340° North 417 480 34,000  Level Indianapolis Center
03:53PM 36.3369 -84.9769 340° North 416 479 34,000  Level Indianapolis Center
03:54PM 36.4453 -85.0286 339° North 416 479 34,000  Level Indianapolis Center
03:55PM 36.5553 -85.0800 339° North 420 483 34,000  Level Indianapolis Center
03:56PM 36.6642 -85.1314 339° North 420 483 34,000  Level Indianapolis Center
03:57PM 36.7964 -85.1939 339° North 422 486 34,000  Level Indianapolis Center
03:58PM 36.9064 -85.2453 340° North 422 486 34,000  Level Indianapolis Center
03:59PM 37.0144 -85.2964 339° North 417 480 34,000  Level Indianapolis Center
04:00PM 37.1306 -85.3511 339° North 419 482 34,000  Level Indianapolis Center
04:01PM 37.2392 -85.4044 339° North 417 480 34,000  Level Indianapolis Center
04:02PM 37.3489 -85.4561 339° North 418 481 34,000  Level Indianapolis Center
04:03PM 37.4594 -85.5083 339° North 421 484 34,000  Level Indianapolis Center
04:04PM 37.5581 -85.5564 339° North 427 491 34,000  Level Indianapolis Center
04:05PM 37.6889 -85.6194 339° North 419 482 34,000  Level Indianapolis Center
04:06PM 37.7992 -85.6719 339° North 422 486 34,000  Level Indianapolis Center
04:07PM 37.9083 -85.7250 339° North 421 484 34,000  Level Indianapolis Center
04:08PM 38.0175 -85.7797 338° Northwest 422 486 34,000  Level Indianapolis Center
04:09PM 38.1264 -85.8328 339° North 421 484 34,000  Level Indianapolis Center
04:10PM 38.2364 -85.8858 339° North 422 486 34,000  Level Indianapolis Center
04:11PM 38.3453 -85.9406 338° Northwest 421 484 34,000  Level Indianapolis Center
04:12PM 38.4547 -85.9936 339° North 421 484 34,000  Level Indianapolis Center
04:13PM 38.5853 -86.0592 339° North 420 483 34,000  Level Indianapolis Center
04:14PM 38.6942 -86.1131 339° North 419 482 34,000  Level Indianapolis Center
04:15PM 38.8033 -86.1678 339° North 421 484 34,000  Level Indianapolis Center
04:16PM 38.9092 -86.2214 338° Northwest 422 486 34,000  Level Indianapolis Center
04:17PM 39.0175 -86.2750 339° North 420 483 34,000  Level Indianapolis Center
04:18PM 39.1281 -86.3311 339° North 424 488 34,000  Level Indianapolis Center
04:19PM 39.2378 -86.3861 339° North 424 488 34,000  Level Indianapolis Center
04:20PM 39.3697 -86.4533 339° North 424 488 34,000  Level Indianapolis Center
04:21PM 39.4800 -86.5067 340° North 421 484 34,000  Level Indianapolis Center
04:22PM 39.5933 -86.5500 344° North 421 484 34,000  Level Indianapolis Center
04:23PM 39.7053 -86.5961 342° North 416 479 34,000  Level Indianapolis Center
04:24PM 39.8175 -86.6411 343° North 417 480 34,000  Level Indianapolis Center
04:25PM 39.9292 -86.6861 343° North 417 480 34,000  Level Indianapolis Center
04:27PM 40.0403 -86.7308 343° North 417 480 34,000  Level Indianapolis Center
04:28PM 40.1739 -86.7839 343° North 420 483 34,000  Level Chicago Center
04:29PM 40.2886 -86.8067 351° North 418 481 34,000  Level Chicago Center
04:30PM 40.4036 -86.8319 350° North 419 482 34,000 -180 Level Chicago Center
04:31PM 40.5183 -86.8572 350° North 420 483 33,700 -540 Descending Chicago Center
04:32PM 40.6339 -86.8814 351° North 420 483 33,000 -360 Descending Chicago Center
04:33PM 40.7506 -86.9075 350° North 421 484 33,000  Level Chicago Center
04:34PM 40.8653 -86.9322 351° North 419 482 33,000  Level Chicago Center
04:35PM 41.0028 -86.9639 350° North 421 484 33,000  Level Chicago Center
04:36PM 41.1189 -86.9886 351° North 424 488 33,000  Level Chicago Center
04:37PM 41.2353 -87.0147 350° North 424 488 33,000 -240 Level Chicago Center
04:38PM 41.3481 -87.0392 351° North 417 480 32,600 -1,560 Descending Chicago Center
04:39PM 41.4636 -87.0656 350° North 422 486 29,800 -2,940 Descending Chicago Center
04:40PM 41.6003 -87.0972 350° North 420 483 26,600 -2,820 Descending Chicago Center
04:41PM 41.7111 -87.1219 351° North 411 473 24,100 -1,920 Descending Chicago Center
04:42PM 41.8178 -87.1467 350° North 400 460 22,700 -1,320 Descending Chicago Center
04:43PM 41.9239 -87.1708 350° North 392 451 21,400 -1,320 Descending Chicago Center
04:44PM 42.0286 -87.1956 350° North 388 447 20,100 -1,260 Descending Chicago Center
04:45PM 42.1297 -87.2164 351° North 377 434 18,900 -1,380 Descending Chicago Center
04:46PM 42.2531 -87.2461 350° North 377 434 17,300 -1,320 Descending Chicago Center
04:47PM 42.3364 -87.2644 351° North 370 426 16,300 -840 Descending Chicago Center
04:48PM 42.4564 -87.2925 350° North 365 420 15,700 -1,740 Descending Chicago Center
04:49PM 42.5536 -87.3158 350° North 357 411 12,800 -2,760 Descending Chicago Center
04:50PM 42.6478 -87.3386 350° North 346 398 10,100 -1,380 Descending Chicago Center
04:51PM 42.7383 -87.3708 345° North 343 395 10,000 -60 Descending Chicago Center
04:52PM 42.7892 -87.4875 301° West 334 384 10,000 -360 Level Chicago Center
04:53PM 42.8275 -87.5858 298° West 294 338 9,300 -1,260 Descending Chicago Center
04:54PM 42.8653 -87.6769 300° West 276 318 7,500 -1,140 Descending Chicago Center
04:55PM 42.8908 -87.7708 290° West 270 311 7,000 -300 Descending Chicago Center
04:56PM 42.8717 -87.8703 255° West 267 307 7,000 -1,260 Level Chicago Center
04:57PM 42.8539 -87.9664 256° West 262 302 4,500 -1,860 Descending Chicago Center
04:58PM 42.8486 -88.0569 265° West 243 280 3,300 -900 Descending Chicago Center
04:59PM 42.9061 -88.0514 North 215 247 2,700 -780 Descending Chicago Center
05:00PM 42.9217 -87.9858 72° East 193 222 1,800 -780 Descending Chicago Center
05:01PM 42.9319 -87.9467 70° East 169 194 1,200 -600 Descending Chicago Center
05:03PM 42.9333 -87.8833 64° Northeast  Level FlightAware Approximate